Time;durP1;ratioP1;P1;durP2;ratioP2;P2;SDS_P1;SDS_P2;PMS_P1;PMS_P2;Temp;Humidity;BMP_temperature;BMP_pressure;BME280_temperature;BME280_humidity;BME280_pressure;Samples;Min_cycle;Max_cycle;Signal;HPM_P1;HPM_P2
2021/06/09 00:00:55;;;;;;;11.53;6.90;;;;;;;14.79;82.48;100276.75;1758038;81;21453;-83
2021/06/09 00:03:22;;;;;;;13.72;6.85;;;;;;;14.75;82.49;100271.37;1757968;81;21083;-83
2021/06/09 00:05:51;;;;;;;8.75;7.35;;;;;;;14.74;82.36;100266.20;1757970;81;20994;-83
2021/06/09 00:08:18;;;;;;;9.25;6.08;;;;;;;14.71;82.22;100264.17;1758081;80;20932;-85
2021/06/09 00:10:48;;;;;;;6.80;5.47;;;;;;;14.70;82.14;100259.05;1758057;81;21524;-84
2021/06/09 00:13:16;;;;;;;12.18;6.75;;;;;;;14.68;82.05;100260.48;1758274;81;20936;-84
2021/06/09 00:15:43;;;;;;;7.90;6.22;;;;;;;14.67;82.00;100259.28;1758030;81;21276;-83
2021/06/09 00:18:11;;;;;;;10.48;6.95;;;;;;;14.66;82.16;100266.86;1758055;81;20884;-86
2021/06/09 00:20:38;;;;;;;9.25;6.90;;;;;;;14.65;82.44;100266.03;1758204;80;20939;-81
2021/06/09 00:23:05;;;;;;;11.35;7.70;;;;;;;14.63;82.58;100262.67;1758222;80;20905;-81
2021/06/09 00:25:32;;;;;;;10.48;8.38;;;;;;;14.62;82.56;100259.66;1758348;80;20885;-83
2021/06/09 00:27:59;;;;;;;10.38;7.97;;;;;;;14.62;82.64;100261.47;1757863;80;21784;-82
2021/06/09 00:30:33;;;;;;;10.08;9.08;;;;;;;14.61;82.96;100261.13;1758202;81;20908;-82
2021/06/09 00:33:01;;;;;;;13.35;10.00;;;;;;;14.58;83.19;100256.92;1758026;81;20876;-82
2021/06/09 00:35:28;;;;;;;10.60;9.55;;;;;;;14.57;83.53;100259.70;1758295;81;21397;-81
2021/06/09 00:37:55;;;;;;;14.55;13.05;;;;;;;14.55;83.87;100258.50;1757965;81;20911;-79
2021/06/09 00:40:23;;;;;;;12.55;11.12;;;;;;;14.55;84.08;100252.40;1757944;81;21954;-80
2021/06/09 00:43:11;;;;;;;13.72;9.33;;;;;;;14.55;84.11;100253.72;1757964;81;20908;-83
2021/06/09 00:45:54;;;;;;;11.38;10.18;;;;;;;14.55;83.76;100249.27;1758175;81;20928;-83
2021/06/09 00:48:25;;;;;;;11.33;10.25;;;;;;;14.57;83.44;100252.62;1758029;80;20876;-83
2021/06/09 00:50:51;;;;;;;11.83;10.32;;;;;;;14.58;83.40;100250.32;1757923;81;20849;-83
2021/06/09 00:53:27;;;;;;;10.60;9.60;;;;;;;14.59;83.57;100246.73;1759286;81;21417;-84
2021/06/09 00:55:57;;;;;;;12.00;8.75;;;;;;;14.54;83.63;100243.62;1758265;81;21370;-83
2021/06/09 00:58:24;;;;;;;14.25;9.80;;;;;;;14.48;83.80;100246.27;1758043;81;20881;-82
2021/06/09 01:00:51;;;;;;;9.95;8.85;;;;;;;14.45;83.97;100250.95;1758383;81;20900;-85
2021/06/09 01:03:18;;;;;;;12.03;10.70;;;;;;;14.40;84.19;100248.69;1758091;80;20928;-87
2021/06/09 01:05:46;;;;;;;14.78;11.00;;;;;;;14.38;84.45;100247.14;1758102;81;21500;-84
2021/06/09 01:08:15;;;;;;;11.25;10.13;;;;;;;14.40;84.46;100243.90;1758319;80;20837;-85
2021/06/09 01:10:45;;;;;;;14.98;10.05;;;;;;;14.42;84.19;100241.98;1758336;81;20892;-85
2021/06/09 01:13:11;;;;;;;14.87;9.78;;;;;;;14.42;83.71;100247.25;1758345;80;20968;-86
2021/06/09 01:15:39;;;;;;;13.83;9.83;;;;;;;14.42;83.26;100240.66;1758020;80;20975;-85
2021/06/09 01:18:05;;;;;;;11.83;10.35;;;;;;;14.43;83.00;100246.30;1758352;81;21120;-84
2021/06/09 01:20:33;;;;;;;11.12;9.73;;;;;;;14.44;83.01;100244.01;1758089;81;20932;-82
2021/06/09 01:23:01;;;;;;;11.08;9.98;;;;;;;14.44;83.33;100244.01;1758074;80;21456;-87
2021/06/09 01:25:27;;;;;;;11.05;9.58;;;;;;;14.45;83.42;100243.03;1758242;81;20955;-86
2021/06/09 01:27:54;;;;;;;14.78;10.45;;;;;;;14.46;83.46;100244.72;1758092;81;21369;-86
2021/06/09 01:30:21;;;;;;;11.45;9.25;;;;;;;14.46;83.70;100246.04;1758044;81;21127;-86
2021/06/09 01:32:48;;;;;;;11.05;8.53;;;;;;;14.46;83.79;100242.91;1758252;81;21019;-87
2021/06/09 01:35:15;;;;;;;10.95;9.68;;;;;;;14.48;84.01;100234.88;1758421;80;21007;-88
2021/06/09 01:37:42;;;;;;;12.55;8.73;;;;;;;14.49;84.11;100239.18;1757926;80;20916;-81
2021/06/09 01:40:14;;;;;;;13.13;9.38;;;;;;;14.50;83.85;100238.23;1758111;80;20928;-81
2021/06/09 01:42:41;;;;;;;10.53;9.23;;;;;;;14.50;84.04;100236.91;1757276;81;21121;-84
2021/06/09 01:45:12;;;;;;;8.78;7.97;;;;;;;14.51;84.32;100231.98;1757927;80;20980;-83
2021/06/09 01:47:39;;;;;;;13.32;9.90;;;;;;;14.50;84.08;100229.00;1758589;81;20841;-83
2021/06/09 01:50:09;;;;;;;12.00;9.03;;;;;;;14.49;83.88;100232.58;1741297;81;20967;-84
2021/06/09 01:52:36;;;;;;;10.13;8.83;;;;;;;14.47;83.69;100232.73;1758079;81;20935;-84
2021/06/09 01:55:05;;;;;;;11.25;9.35;;;;;;;14.44;83.40;100233.45;1758576;80;21060;-84
2021/06/09 01:57:31;;;;;;;10.08;9.05;;;;;;;14.43;83.32;100242.34;1758365;81;21436;-84
2021/06/09 01:59:59;;;;;;;10.80;8.88;;;;;;;14.40;83.21;100239.45;1758374;81;20927;-82
2021/06/09 02:02:26;;;;;;;9.03;7.72;;;;;;;14.40;83.26;100239.45;1759380;80;20972;-84
2021/06/09 02:04:53;;;;;;;9.33;7.25;;;;;;;14.39;83.42;100239.60;1760537;81;21339;-82
2021/06/09 02:07:20;;;;;;;10.65;8.55;;;;;;;14.37;83.51;100245.48;1760337;81;20939;-83
2021/06/09 02:09:47;;;;;;;9.98;8.63;;;;;;;14.32;83.71;100247.18;1760247;81;20979;-83
2021/06/09 02:12:14;;;;;;;10.28;9.38;;;;;;;14.29;84.06;100248.27;1758348;81;21370;-81
2021/06/09 02:14:41;;;;;;;18.45;8.08;;;;;;;14.31;84.33;100256.04;1759277;80;20861;-83
2021/06/09 02:17:10;;;;;;;9.55;8.33;;;;;;;14.34;84.17;100254.95;1693975;81;21437;-82
2021/06/09 02:19:36;;;;;;;9.03;8.18;;;;;;;14.36;83.87;100255.66;1758570;80;21501;-83
2021/06/09 02:22:04;;;;;;;10.68;8.33;;;;;;;14.36;83.68;100255.66;1758120;81;20920;-81
2021/06/09 02:24:31;;;;;;;9.03;8.13;;;;;;;14.38;83.78;100258.53;1759249;80;20884;-84
2021/06/09 02:26:58;;;;;;;9.43;8.53;;;;;;;14.39;83.66;100257.58;1741386;81;20983;-84
2021/06/09 02:29:25;;;;;;;8.68;7.78;;;;;;;14.40;83.61;100262.37;1757988;81;20852;-82
2021/06/09 02:31:52;;;;;;;9.00;8.18;;;;;;;14.41;83.41;100264.06;1758260;81;21116;-88
2021/06/09 02:34:24;;;;;;;9.55;7.72;;;;;;;14.40;83.13;100263.69;1758034;81;20912;-89
2021/06/09 02:36:53;;;;;;;10.30;8.48;;;;;;;14.39;83.00;100255.43;1758676;81;20908;-87
2021/06/09 02:39:21;;;;;;;9.35;8.45;;;;;;;14.39;83.00;100258.90;1757982;80;20896;-88
2021/06/09 02:41:48;;;;;;;9.45;7.92;;;;;;;14.38;83.07;100258.53;1758378;81;20951;-89
2021/06/09 02:44:17;;;;;;;13.93;8.58;;;;;;;14.39;83.24;100262.86;1758280;81;21791;-88
2021/06/09 02:46:56;;;;;;;17.20;7.75;;;;;;;14.40;83.26;100263.69;1758480;81;21411;-88
2021/06/09 02:49:26;;;;;;;11.20;8.43;;;;;;;14.40;83.38;100265.84;1758636;81;20927;-87
2021/06/09 02:52:13;;;;;;;8.83;8.03;;;;;;;14.42;83.37;100265.72;1759066;81;20932;-90
2021/06/09 02:55:17;;;;;;;9.10;8.20;;;;;;;14.44;83.41;100268.59;1758692;80;20932;-91
2021/06/09 02:58:02;;;;;;;9.20;7.95;;;;;;;14.46;83.53;100264.02;1758906;80;21256;-91
2021/06/09 03:00:45;;;;;;;9.93;7.37;;;;;;;14.49;83.69;100262.93;1758584;80;20916;-88
2021/06/09 03:03:22;;;;;;;8.05;7.25;;;;;;;14.50;83.96;100264.13;1759007;81;20853;-89
2021/06/09 03:06:08;;;;;;;7.17;6.47;;;;;;;14.56;84.12;100264.61;1758256;81;20931;-89
2021/06/09 03:08:45;;;;;;;7.95;7.17;;;;;;;14.61;84.18;100263.28;1758543;81;21415;-91
2021/06/09 03:11:39;;;;;;;16.62;11.12;;;;;;;14.66;84.26;100263.73;1748492;80;21340;-90
2021/06/09 03:17:03;;;;;;;11.53;7.80;;;;;;;14.78;84.10;100272.42;1749634;80;20971;-82
2021/06/09 03:20:03;;;;;;;9.50;7.95;;;;;;;14.84;84.17;100273.73;1758459;80;20888;-86
2021/06/09 03:22:36;;;;;;;9.18;8.05;;;;;;;14.89;84.29;100274.17;1758057;81;20844;-83
2021/06/09 03:25:03;;;;;;;11.88;9.93;;;;;;;14.96;84.49;100275.81;1758190;81;21089;-85
2021/06/09 03:27:44;;;;;;;13.55;10.32;;;;;;;15.04;84.67;100272.89;1758445;80;20928;-86
2021/06/09 03:30:12;;;;;;;10.93;9.33;;;;;;;15.14;84.84;100270.33;1758273;81;21038;-86
2021/06/09 03:33:03;;;;;;;14.25;9.48;;;;;;;15.25;84.88;100272.02;1758161;81;21457;-86
2021/06/09 03:35:44;;;;;;;11.85;9.35;;;;;;;15.32;84.70;100264.78;1758633;81;20999;-86
2021/06/09 03:38:19;;;;;;;11.00;8.93;;;;;;;15.42;84.65;100273.23;1759903;81;21473;-86
2021/06/09 03:40:46;;;;;;;10.30;9.05;;;;;;;15.48;84.66;100272.23;1756702;81;20975;-87
2021/06/09 03:43:13;;;;;;;12.98;9.35;;;;;;;15.56;84.80;100274.19;1758692;81;20924;-86
2021/06/09 03:45:47;;;;;;;12.53;9.13;;;;;;;15.63;84.83;100272.72;1758223;81;21377;-85
2021/06/09 03:48:16;;;;;;;13.15;9.45;;;;;;;15.71;84.89;100269.42;1758666;81;20980;-82
2021/06/09 03:50:44;;;;;;;13.32;8.93;;;;;;;15.81;85.07;100261.05;1758243;81;21818;-85
2021/06/09 03:53:11;;;;;;;14.33;9.75;;;;;;;15.94;85.17;100266.07;1758277;81;20861;-83
2021/06/09 03:55:38;;;;;;;11.40;8.65;;;;;;;16.05;85.24;100268.63;1758280;81;20935;-85
2021/06/09 03:58:13;;;;;;;16.35;9.58;;;;;;;16.34;85.78;100270.45;1758176;81;20943;-84
2021/06/09 04:00:40;;;;;;;11.60;10.03;;;;;;;16.34;85.78;100270.45;1757832;80;21440;-86
2021/06/09 04:03:12;;;;;;;11.78;9.33;;;;;;;16.55;85.75;100269.84;1758429;81;21168;-84
2021/06/09 04:05:42;;;;;;;11.80;9.13;;;;;;;16.85;85.57;100276.02;1758770;81;20876;-87
2021/06/09 04:08:15;;;;;;;11.33;9.68;;;;;;;17.24;85.75;100281.23;1758895;81;20939;-87
2021/06/09 04:10:44;;;;;;;17.02;10.25;;;;;;;17.76;85.54;100280.75;1759283;81;20912;-83
2021/06/09 04:13:11;;;;;;;13.48;8.45;;;;;;;18.38;84.94;100287.61;1758801;81;20861;-82
2021/06/09 04:15:38;;;;;;;13.38;8.95;;;;;;;19.00;82.90;100281.86;1741423;81;21141;-79
2021/06/09 04:18:07;;;;;;;12.75;8.50;;;;;;;19.65;81.59;100287.23;1758458;81;20936;-81
2021/06/09 04:20:35;;;;;;;8.38;7.55;;;;;;;20.26;79.33;100280.00;1758246;80;20919;-81
2021/06/09 04:23:01;;;;;;;9.23;7.03;;;;;;;20.86;77.25;100284.25;1758388;81;20900;-81
2021/06/09 04:25:29;;;;;;;9.08;7.80;;;;;;;21.39;75.42;100277.98;1758535;81;20951;-82
2021/06/09 04:27:59;;;;;;;8.38;7.05;;;;;;;21.88;72.80;100281.86;1756544;80;21128;-87
2021/06/09 04:30:27;;;;;;;9.58;8.08;;;;;;;22.34;70.98;100278.80;1745425;81;21019;-85
2021/06/09 04:32:59;;;;;;;10.65;9.20;;;;;;;22.79;69.07;100279.44;1745373;80;20928;-82
2021/06/09 04:35:29;;;;;;;10.32;7.95;;;;;;;23.20;67.55;100277.77;1745013;81;21016;-82
2021/06/09 04:37:56;;;;;;;10.85;7.70;;;;;;;23.62;65.88;100284.34;1733286;82;21000;-82
2021/06/09 04:40:26;;;;;;;15.00;8.60;;;;;;;23.94;63.89;100275.91;1745304;81;21137;-81
2021/06/09 04:42:54;;;;;;;9.33;8.33;;;;;;;24.22;62.38;100275.72;1747290;79;20945;-81
2021/06/09 04:45:23;;;;;;;14.85;8.33;;;;;;;24.40;61.21;100278.79;1747701;80;20956;-81
2021/06/09 04:47:50;;;;;;;7.62;6.78;;;;;;;24.49;60.27;100276.84;1746740;81;20972;-81
2021/06/09 04:50:20;;;;;;;9.43;8.50;;;;;;;24.65;59.77;100283.80;1745366;81;20968;-80
2021/06/09 04:52:47;;;;;;;12.10;8.13;;;;;;;24.78;59.55;100280.71;1744900;81;22529;-81
2021/06/09 04:55:14;;;;;;;9.75;8.08;;;;;;;24.99;58.93;100277.19;1744609;81;21366;-82
2021/06/09 04:57:41;;;;;;;10.53;8.40;;;;;;;25.18;58.21;100271.63;1744591;81;21335;-82
2021/06/09 05:00:13;;;;;;;9.18;7.60;;;;;;;25.41;57.70;100273.23;1745699;81;20961;-83
2021/06/09 05:02:40;;;;;;;7.22;6.53;;;;;;;25.69;57.32;100281.24;1744806;81;20932;-80
2021/06/09 05:05:09;;;;;;;7.95;6.78;;;;;;;26.02;56.43;100276.03;1744598;81;20972;-80
2021/06/09 05:07:35;;;;;;;8.55;7.75;;;;;;;26.29;55.61;100267.22;1744507;81;20928;-82
2021/06/09 05:10:03;;;;;;;11.10;6.42;;;;;;;26.53;54.44;100270.66;1744953;80;20924;-82
2021/06/09 05:12:34;;;;;;;8.13;6.75;;;;;;;26.75;53.60;100275.38;1744535;81;21374;-83
2021/06/09 05:15:04;;;;;;;7.30;6.30;;;;;;;26.93;52.85;100270.70;1734599;82;20889;-82
2021/06/09 05:17:45;;;;;;;7.72;6.62;;;;;;;27.14;52.61;100271.51;1744666;82;21330;-82
2021/06/09 05:20:27;;;;;;;7.97;6.87;;;;;;;27.38;52.29;100278.95;1744680;81;20968;-83
2021/06/09 05:23:26;;;;;;;7.85;6.53;;;;;;;27.71;50.93;100282.06;1744213;81;20920;-82
2021/06/09 05:25:54;;;;;;;8.75;6.30;;;;;;;27.90;50.71;100280.34;1744658;81;21421;-82
2021/06/09 05:28:23;;;;;;;6.70;5.40;;;;;;;28.13;50.39;100276.31;1746649;80;21043;-84
2021/06/09 05:30:52;;;;;;;8.18;6.83;;;;;;;28.35;49.76;100266.84;1758008;81;21523;-85
2021/06/09 05:33:19;;;;;;;8.28;6.47;;;;;;;28.56;49.26;100267.55;1758322;81;20921;-85
2021/06/09 05:35:46;;;;;;;6.12;5.62;;;;;;;28.75;48.64;100269.27;1741107;81;21042;-84
2021/06/09 05:38:13;;;;;;;8.40;5.97;;;;;;;28.87;48.43;100266.14;1758220;80;20960;-83
2021/06/09 05:40:40;;;;;;;12.35;6.40;;;;;;;29.03;47.81;100267.98;1758000;81;21465;-84
2021/06/09 05:43:07;;;;;;;10.20;6.95;;;;;;;29.13;47.81;100267.81;1758207;81;21068;-82
2021/06/09 05:45:36;;;;;;;7.17;6.47;;;;;;;29.34;47.45;100263.02;1757970;81;20992;-85
2021/06/09 05:48:04;;;;;;;7.35;5.87;;;;;;;29.61;46.78;100267.59;1758408;81;21401;-87
2021/06/09 05:50:32;;;;;;;6.85;5.85;;;;;;;29.65;45.68;100266.09;1757948;80;20928;-84
2021/06/09 05:53:04;;;;;;;8.98;6.33;;;;;;;29.70;45.74;100265.44;1758490;80;21019;-85
2021/06/09 05:55:29;;;;;;;5.53;5.03;;;;;;;29.61;45.79;100268.94;1757774;81;21146;-87
2021/06/09 05:57:56;;;;;;;6.25;5.10;;;;;;;29.66;46.12;100270.45;1758333;80;20849;-85
2021/06/09 06:00:25;;;;;;;5.62;4.58;;;;;;;29.87;45.82;100267.82;1758312;81;21394;-85
2021/06/09 06:02:53;;;;;;;5.45;4.90;;;;;;;30.10;44.70;100271.17;1758311;80;21405;-85
2021/06/09 06:05:20;;;;;;;6.85;4.20;;;;;;;30.10;44.73;100268.47;1758101;81;20900;-82
2021/06/09 06:07:48;;;;;;;8.58;4.47;;;;;;;30.19;44.95;100265.41;1758023;81;21145;-84
2021/06/09 06:10:15;;;;;;;4.00;3.25;;;;;;;30.40;44.15;100256.81;1757947;81;20836;-86
2021/06/09 06:12:42;;;;;;;3.62;3.22;;;;;;;30.63;43.41;100258.72;1759296;81;20885;-83
2021/06/09 06:15:12;;;;;;;5.15;2.98;;;;;;;30.75;43.05;100256.87;1758474;81;20897;-84
2021/06/09 06:17:44;;;;;;;4.05;3.33;;;;;;;30.92;42.54;100255.66;1758432;81;21409;-85
2021/06/09 06:20:16;;;;;;;4.92;2.70;;;;;;;31.05;42.10;100256.48;1758442;81;21129;-84
2021/06/09 06:22:44;;;;;;;3.37;2.87;;;;;;;31.09;41.88;100254.95;1759663;80;20880;-83
2021/06/09 06:25:18;;;;;;;2.25;2.08;;;;;;;31.24;42.30;100261.23;1758903;81;20916;-83
2021/06/09 06:27:49;;;;;;;2.52;2.33;;;;;;;31.43;41.53;100266.02;1759214;81;20900;-85
2021/06/09 06:30:20;;;;;;;3.00;2.58;;;;;;;31.55;41.04;100268.16;1748431;80;20897;-86
2021/06/09 06:32:52;;;;;;;5.47;2.58;;;;;;;31.70;40.04;100264.94;1745099;81;21169;-87
2021/06/09 06:35:22;;;;;;;3.67;2.58;;;;;;;31.80;39.93;100259.19;1743693;81;20916;-87
2021/06/09 06:37:50;;;;;;;4.20;2.40;;;;;;;31.95;39.25;100261.89;1744931;81;20921;-86
2021/06/09 06:40:23;;;;;;;2.95;2.55;;;;;;;32.03;39.32;100267.52;1745092;81;21454;-85
2021/06/09 06:43:44;;;;;;;3.22;3.02;;;;;;;32.25;38.95;100268.46;1798046;79;22638;-86
2021/06/09 06:46:15;;;;;;;2.75;2.55;;;;;;;32.32;38.34;100262.34;1758841;80;20936;-85
2021/06/09 06:48:42;;;;;;;2.87;2.47;;;;;;;32.37;38.24;100263.80;1724981;81;21559;-82
2021/06/09 06:51:12;;;;;;;2.62;2.30;;;;;;;32.46;38.29;100253.87;1725070;83;21041;-80
2021/06/09 06:53:42;;;;;;;3.20;2.90;;;;;;;32.59;38.37;100254.43;1724782;83;20891;-78
2021/06/09 06:56:09;;;;;;;4.12;2.60;;;;;;;32.77;38.18;100258.78;1724773;81;20907;-80
2021/06/09 06:58:37;;;;;;;2.30;2.20;;;;;;;32.92;38.49;100262.79;1724748;83;20919;-80
2021/06/09 07:01:04;;;;;;;2.83;2.42;;;;;;;33.05;38.42;100252.93;1724918;83;21103;-79
2021/06/09 07:03:35;;;;;;;3.05;2.05;;;;;;;33.08;35.92;100254.34;1724719;83;20915;-79
2021/06/09 07:06:02;;;;;;;3.87;2.50;;;;;;;32.91;35.77;100250.29;1697311;83;21369;-79
2021/06/09 07:08:29;;;;;;;2.42;2.17;;;;;;;32.78;36.51;100240.05;1696510;83;20898;-77
2021/06/09 07:10:56;;;;;;;2.65;2.42;;;;;;;32.85;36.63;100247.20;1724827;82;20848;-78
2021/06/09 07:13:23;;;;;;;2.10;1.90;;;;;;;33.00;37.11;100244.17;1724752;83;21172;-80
2021/06/09 07:15:54;;;;;;;3.95;2.35;;;;;;;33.14;36.70;100244.66;1724798;81;20935;-79
2021/06/09 07:18:24;;;;;;;2.30;2.08;;;;;;;33.33;36.83;100247.91;1724960;82;21528;-80
2021/06/09 07:20:51;;;;;;;6.37;3.08;;;;;;;33.53;36.66;100246.50;1724915;81;20899;-79
2021/06/09 07:23:18;;;;;;;1.75;1.65;;;;;;;33.68;36.20;100245.91;1725174;83;21361;-79
2021/06/09 07:25:46;;;;;;;2.12;1.60;;;;;;;33.75;33.73;100244.64;1724803;83;21100;-81
2021/06/09 07:28:13;;;;;;;157.10;24.70;;;;;;;33.83;33.65;100240.63;1725014;83;20871;-80
2021/06/09 07:30:40;;;;;;;9.70;4.00;;;;;;;33.96;34.65;100239.42;1711164;84;20956;-82
2021/06/09 07:33:07;;;;;;;4.65;1.70;;;;;;;34.06;33.95;100239.50;1722288;82;21393;-78
2021/06/09 07:35:34;;;;;;;16.32;3.75;;;;;;;34.05;33.12;100236.52;1722546;83;21019;-79
2021/06/09 07:38:09;;;;;;;2.33;2.05;;;;;;;34.05;33.34;100236.52;1695837;83;21140;-79
2021/06/09 07:40:42;;;;;;;2.10;1.52;;;;;;;34.15;34.03;100235.80;1721905;83;20893;-80
2021/06/09 07:43:13;;;;;;;1.90;1.80;;;;;;;34.26;33.10;100236.17;1713930;83;21031;-82
2021/06/09 07:45:41;;;;;;;4.00;2.02;;;;;;;34.33;33.47;100238.69;1706124;83;20980;-77
2021/06/09 07:48:08;;;;;;;2.75;1.80;;;;;;;34.43;33.17;100233.34;1710237;84;20932;-84
2021/06/09 07:50:49;;;;;;;2.00;1.90;;;;;;;34.32;33.41;100239.23;1709416;83;21092;-87
2021/06/09 07:53:16;;;;;;;2.58;1.90;;;;;;;34.12;33.73;100238.50;1709005;83;20945;-89
2021/06/09 07:55:46;;;;;;;11.33;2.77;;;;;;;33.92;32.88;100228.21;1708595;83;20912;-81
2021/06/09 07:58:16;;;;;;;2.92;2.02;;;;;;;33.74;33.44;100226.66;1708908;84;20951;-86
2021/06/09 08:00:43;;;;;;;4.08;1.85;;;;;;;33.74;34.25;100229.93;1708692;83;20945;-85
2021/06/09 08:03:09;;;;;;;2.85;1.75;;;;;;;33.79;33.15;100234.06;1709018;84;21924;-85
2021/06/09 08:05:39;;;;;;;2.37;2.00;;;;;;;33.55;33.26;100238.41;1708693;84;20940;-85
2021/06/09 08:08:06;;;;;;;2.87;1.75;;;;;;;33.47;34.08;100229.87;1708668;83;20945;-84
2021/06/09 08:10:34;;;;;;;1.70;1.60;;;;;;;33.68;33.91;100233.13;1708413;84;20944;-83
2021/06/09 08:13:02;;;;;;;1.87;1.77;;;;;;;33.78;33.16;100235.96;1708261;83;20913;-87
2021/06/09 08:15:31;;;;;;;1.55;1.40;;;;;;;33.77;33.41;100232.12;1708727;83;21284;-87
2021/06/09 08:17:59;;;;;;;2.70;1.92;;;;;;;33.74;32.68;100236.73;1708871;84;21387;-85
2021/06/09 08:20:26;;;;;;;2.17;1.98;;;;;;;33.78;32.80;100238.69;1708825;84;20869;-85
2021/06/09 08:22:53;;;;;;;1.42;1.32;;;;;;;33.77;32.52;100241.13;1708729;83;20992;-85
2021/06/09 08:25:23;;;;;;;1.90;1.80;;;;;;;33.80;33.02;100237.89;1709254;83;20882;-87
2021/06/09 08:27:55;;;;;;;2.08;1.75;;;;;;;33.94;32.50;100235.58;1709125;83;21145;-87
2021/06/09 08:30:22;;;;;;;3.55;2.00;;;;;;;34.12;32.27;100236.33;1709422;83;21430;-85
2021/06/09 08:32:50;;;;;;;1.98;1.87;;;;;;;34.20;31.81;100235.88;1708909;83;20905;-84
2021/06/09 08:35:17;;;;;;;3.02;2.15;;;;;;;34.08;31.09;100241.97;1708844;84;20885;-81
2021/06/09 08:37:44;;;;;;;2.22;1.98;;;;;;;33.93;31.97;100238.55;1708977;83;21000;-83
2021/06/09 08:40:12;;;;;;;1.60;1.50;;;;;;;33.70;31.00;100235.59;1709022;83;21128;-81
2021/06/09 08:42:41;;;;;;;1.95;1.70;;;;;;;33.46;32.41;100231.74;1711219;83;20940;-79
2021/06/09 08:45:10;;;;;;;3.00;1.60;;;;;;;33.47;31.88;100229.87;1721829;83;20864;-80
2021/06/09 08:47:37;;;;;;;1.77;1.67;;;;;;;33.57;32.59;100232.17;1722039;83;20931;-78
2021/06/09 08:50:10;;;;;;;1.32;1.02;;;;;;;33.62;31.79;100223.28;1721926;82;20923;-80
2021/06/09 08:52:49;;;;;;;1.50;0.98;;;;;;;33.66;32.13;100231.19;1721544;83;21142;-80
2021/06/09 08:55:17;;;;;;;1.98;1.20;;;;;;;33.78;30.45;100229.70;1722054;82;20860;-81
2021/06/09 08:57:44;;;;;;;3.05;1.25;;;;;;;33.88;31.55;100227.08;1721884;82;20931;-80
2021/06/09 09:00:12;;;;;;;1.70;1.57;;;;;;;33.98;31.64;100219.58;1718796;83;20920;-80
2021/06/09 09:02:40;;;;;;;1.95;1.35;;;;;;;34.09;32.05;100221.31;1716230;83;20921;-81
2021/06/09 09:05:10;;;;;;;3.37;1.80;;;;;;;34.19;31.20;100218.70;1716155;83;21808;-80
2021/06/09 09:07:38;;;;;;;2.05;1.85;;;;;;;34.24;31.74;100216.55;1716371;83;21398;-79
2021/06/09 09:10:07;;;;;;;1.82;1.30;;;;;;;34.22;31.41;100214.11;1716093;82;20956;-78
2021/06/09 09:12:35;;;;;;;1.87;1.30;;;;;;;34.22;31.07;100207.86;1716168;82;20960;-84
2021/06/09 09:15:06;;;;;;;1.45;1.35;;;;;;;34.32;32.02;100202.48;1716714;83;21433;-85
2021/06/09 09:17:34;;;;;;;5.03;1.80;;;;;;;34.41;31.62;100203.63;1716878;83;21139;-83
2021/06/09 09:20:13;;;;;;;1.10;1.07;;;;;;;34.46;31.64;100200.13;1690855;82;20976;-81
2021/06/09 09:22:37;;;;;;;4.72;1.30;;;;;;;34.54;31.30;100196.92;1717930;83;20867;-83
2021/06/09 09:25:13;;;;;;;4.17;1.67;;;;;;;34.50;31.01;100202.61;1718429;83;20932;-80
2021/06/09 09:27:43;;;;;;;1.67;1.20;;;;;;;34.41;30.39;100201.46;1716132;83;21473;-81
2021/06/09 09:30:17;;;;;;;1.57;1.30;;;;;;;34.27;30.94;100190.20;1715071;83;21606;-79
2021/06/09 09:33:09;;;;;;;1.22;1.00;;;;;;;34.33;31.51;100192.41;1716309;82;21000;-80
2021/06/09 09:35:40;;;;;;;2.65;1.55;;;;;;;34.34;31.23;100192.70;1716390;83;21438;-81
2021/06/09 09:38:28;;;;;;;1.40;1.35;;;;;;;34.39;31.68;100189.45;1716213;83;20944;-84
2021/06/09 09:41:12;;;;;;;1.22;1.12;;;;;;;34.45;32.37;100193.05;1715621;83;21011;-81
2021/06/09 09:43:59;;;;;;;1.65;1.17;;;;;;;34.44;32.44;100190.03;1708211;83;21201;-81
2021/06/09 09:46:32;;;;;;;1.40;1.30;;;;;;;34.42;30.78;100182.14;1702527;84;20877;-83
2021/06/09 09:49:14;;;;;;;1.82;1.42;;;;;;;34.38;32.16;100179.66;1702499;84;20873;-83
2021/06/09 09:51:55;;;;;;;3.17;1.02;;;;;;;34.37;30.02;100184.00;1702945;84;20988;-82
2021/06/09 09:54:35;;;;;;;1.22;1.12;;;;;;;34.24;30.61;100173.00;1702702;84;20956;-81
2021/06/09 09:57:06;;;;;;;0.98;0.93;;;;;;;34.08;30.55;100169.30;1701824;83;21147;-80
2021/06/09 09:59:34;;;;;;;2.95;1.07;;;;;;;34.04;31.12;100175.01;1702788;84;21422;-81
2021/06/09 10:02:04;;;;;;;1.42;1.00;;;;;;;34.05;30.15;100162.48;1702826;84;21004;-84
2021/06/09 10:04:34;;;;;;;0.90;0.90;;;;;;;34.16;31.17;100166.70;1702738;84;20992;-82
2021/06/09 10:07:03;;;;;;;1.42;1.37;;;;;;;34.29;30.44;100164.89;1702715;84;21441;-82
2021/06/09 10:09:38;;;;;;;1.40;1.30;;;;;;;34.49;31.55;100164.77;1702781;83;21129;-82
2021/06/09 10:12:14;;;;;;;2.45;0.90;;;;;;;34.69;30.52;100170.92;1700535;83;20953;-77
2021/06/09 10:14:47;;;;;;;1.70;1.07;;;;;;;34.80;30.03;100165.26;1702802;83;20964;-81
2021/06/09 10:17:28;;;;;;;3.37;1.07;;;;;;;34.86;30.07;100164.20;1702611;84;20929;-82
2021/06/09 10:19:58;;;;;;;5.62;1.60;;;;;;;34.70;29.89;100164.38;1702664;83;20988;-79
2021/06/09 10:22:36;;;;;;;2.00;1.70;;;;;;;34.38;30.94;100163.88;1702712;84;21833;-81
2021/06/09 10:25:13;;;;;;;2.35;1.45;;;;;;;33.80;32.69;100164.98;1701450;84;20866;-81
2021/06/09 10:27:53;;;;;;;1.45;1.35;;;;;;;33.04;34.14;100167.88;1703027;84;21009;-82
2021/06/09 10:30:27;;;;;;;3.05;1.37;;;;;;;32.22;35.42;100159.05;1703354;84;20933;-83
2021/06/09 10:32:58;;;;;;;3.15;1.20;;;;;;;31.49;36.04;100166.13;1702704;84;21000;-82
2021/06/09 10:35:38;;;;;;;1.80;1.70;;;;;;;30.89;37.26;100166.77;1702749;84;21124;-82
2021/06/09 10:38:05;;;;;;;3.08;1.85;;;;;;;30.43;38.30;100169.73;1702521;83;20952;-83
2021/06/09 10:40:34;;;;;;;2.50;1.55;;;;;;;30.06;38.82;100157.73;1702645;83;21434;-84
2021/06/09 10:43:05;;;;;;;1.60;1.30;;;;;;;29.73;38.56;100157.69;1705087;83;20996;-81
2021/06/09 10:45:33;;;;;;;2.22;1.42;;;;;;;29.46;38.01;100160.41;1716304;83;20960;-81
2021/06/09 10:48:04;;;;;;;2.50;1.30;;;;;;;29.32;37.62;100167.33;1716143;82;21110;-80
2021/06/09 10:50:31;;;;;;;1.35;1.25;;;;;;;29.40;38.79;100174.32;1716314;82;21039;-81
2021/06/09 10:52:58;;;;;;;1.20;1.15;;;;;;;29.54;38.71;100165.52;1716143;83;20904;-82
2021/06/09 10:55:25;;;;;;;3.12;1.60;;;;;;;29.68;38.22;100163.45;1715968;83;20940;-82
2021/06/09 10:57:55;;;;;;;1.12;1.02;;;;;;;29.75;38.65;100165.05;1716179;83;20972;-84
2021/06/09 11:00:22;;;;;;;3.83;1.65;;;;;;;29.68;38.95;100164.33;1716267;82;21149;-85
2021/06/09 11:02:49;;;;;;;3.02;2.22;;;;;;;29.50;39.10;100158.91;1716413;83;20909;-82
2021/06/09 11:05:17;;;;;;;2.10;1.70;;;;;;;29.22;39.87;100159.48;1716363;83;20908;-85
2021/06/09 11:07:46;;;;;;;1.80;1.30;;;;;;;28.87;40.31;100162.75;1716616;83;20960;-78
2021/06/09 11:10:32;;;;;;;1.55;1.45;;;;;;;28.61;41.13;100161.95;1716369;83;21517;-86
2021/06/09 11:12:59;;;;;;;4.75;2.30;;;;;;;28.39;41.74;100153.92;1707978;83;21173;-83
2021/06/09 11:15:31;;;;;;;1.90;1.65;;;;;;;28.21;42.11;100156.86;1716216;83;21389;-76
2021/06/09 11:17:57;;;;;;;1.40;1.30;;;;;;;28.05;42.78;100156.06;1715725;83;20873;-76
2021/06/09 11:20:38;;;;;;;1.85;1.45;;;;;;;27.89;43.44;100152.03;1716032;83;20972;-75
2021/06/09 11:23:09;;;;;;;4.70;1.95;;;;;;;27.77;43.39;100151.02;1716179;83;21453;-76
2021/06/09 11:25:47;;;;;;;3.03;2.00;;;;;;;27.68;44.03;100152.64;1716213;83;21311;-77
2021/06/09 11:28:20;;;;;;;1.52;1.42;;;;;;;27.73;44.88;100143.91;1716031;83;20897;-76
2021/06/09 11:30:58;;;;;;;1.72;1.40;;;;;;;27.82;45.63;100139.09;1716221;83;26502;-77
2021/06/09 11:33:40;;;;;;;4.67;1.85;;;;;;;27.88;45.15;100141.78;1716213;83;20940;-76
2021/06/09 11:36:12;;;;;;;1.67;1.40;;;;;;;27.93;44.76;100137.61;1716225;83;21046;-77
2021/06/09 11:38:42;;;;;;;1.95;1.30;;;;;;;27.96;45.09;100137.98;1689528;83;21556;-76
2021/06/09 11:41:18;;;;;;;1.40;1.30;;;;;;;27.98;43.92;100140.46;1716096;82;20900;-76